Time;durP1;ratioP1;P1;durP2;ratioP2;P2;SDS_P1;SDS_P2;PMS_P1;PMS_P2;Temp;Humidity;BMP_temperature;BMP_pressure;BME280_temperature;BME280_humidity;BME280_pressure;Samples;Min_cycle;Max_cycle;Signal;HPM_P1;HPM_P2
2022/07/17 00:02:11;;;;;;;;;;;;;;;10.43;100.00;102037.50;5049445;28;20414;-76
2022/07/17 00:04:36;;;;;;;;;;;;;;;10.48;100.00;102032.63;5065383;28;19928;-76
2022/07/17 00:07:02;;;;;;;;;;;;;;;10.38;100.00;102026.38;5066353;28;19912;-76
2022/07/17 00:09:27;;;;;;;;;;;;;;;10.33;100.00;102033.94;5065606;28;19916;-77
2022/07/17 00:11:53;;;;;;;;;;;;;;;10.25;100.00;102031.00;5065591;28;20381;-77
2022/07/17 00:14:18;;;;;;;;;;;;;;;10.20;100.00;102035.91;5049032;28;19928;-77
2022/07/17 00:16:43;;;;;;;;;;;;;;;10.16;100.00;102032.66;5067078;28;19913;-77
2022/07/17 00:19:09;;;;;;;;;;;;;;;10.06;100.00;102027.22;5066966;28;19920;-76
2022/07/17 00:21:34;;;;;;;;;;;;;;;10.01;100.00;102029.44;5066594;28;20013;-77
2022/07/17 00:23:59;;;;;;;;;;;;;;;9.96;100.00;102031.63;5066905;28;19920;-76
2022/07/17 00:26:25;;;;;;;;;;;;;;;10.01;100.00;102036.59;5049396;28;20039;-76
2022/07/17 00:28:51;;;;;;;;;;;;;;;9.93;100.00;102034.56;5066727;28;19980;-75
2022/07/17 00:31:16;;;;;;;;;;;;;;;9.88;100.00;102037.59;5065159;28;19912;-76
2022/07/17 00:33:41;;;;;;;;;;;;;;;9.84;100.00;102043.31;5065113;28;19917;-76
2022/07/17 00:36:07;;;;;;;;;;;;;;;9.87;100.00;102048.41;5064650;28;19927;-77
2022/07/17 00:38:32;;;;;;;;;;;;;;;10.03;100.00;102053.31;5064356;28;20053;-76
2022/07/17 00:40:58;;;;;;;;;;;;;;;10.07;100.00;102057.44;5065382;28;20000;-77
2022/07/17 00:43:23;;;;;;;;;;;;;;;10.18;100.00;102061.88;5047993;28;19936;-77
2022/07/17 00:45:56;;;;;;;;;;;;;;;10.28;100.00;102057.47;5065782;28;19916;-76
2022/07/17 00:48:21;;;;;;;;;;;;;;;10.33;100.00;102065.97;5064120;28;19943;-76
2022/07/17 00:50:46;;;;;;;;;;;;;;;10.31;100.00;102051.91;5047586;28;20377;-76
2022/07/17 00:53:12;;;;;;;;;;;;;;;10.31;100.00;102049.22;5065298;28;20293;-76
2022/07/17 00:55:39;;;;;;;;;;;;;;;10.33;100.00;102052.63;5064527;28;19912;-77
2022/07/17 00:58:06;;;;;;;;;;;;;;;10.35;100.00;102045.34;5064549;28;19920;-76
2022/07/17 01:00:31;;;;;;;;;;;;;;;10.31;100.00;102028.72;5064579;28;19917;-77
2022/07/17 01:02:56;;;;;;;;;;;;;;;10.28;100.00;102033.44;5060328;28;20065;-77
2022/07/17 01:05:22;;;;;;;;;;;;;;;10.24;100.00;102037.34;5064952;28;19924;-77
2022/07/17 01:07:48;;;;;;;;;;;;;;;10.14;100.00;102027.44;5067013;28;19999;-77
2022/07/17 01:10:14;;;;;;;;;;;;;;;10.11;100.00;102025.03;5064802;28;19923;-76
2022/07/17 01:12:40;;;;;;;;;;;;;;;10.04;100.00;102028.31;5048786;28;19920;-76
2022/07/17 01:15:06;;;;;;;;;;;;;;;10.05;100.00;102030.03;5048529;28;19917;-74
2022/07/17 01:17:31;;;;;;;;;;;;;;;9.99;100.00;102023.38;5064978;28;20011;-77
2022/07/17 01:19:57;;;;;;;;;;;;;;;9.99;100.00;102028.69;5066149;28;20023;-75
2022/07/17 01:22:22;;;;;;;;;;;;;;;9.94;100.00;102020.25;5066434;28;19923;-77
2022/07/17 01:24:47;;;;;;;;;;;;;;;10.00;100.00;102024.25;5064720;28;20003;-75
2022/07/17 01:27:13;;;;;;;;;;;;;;;10.00;100.00;102021.56;5048206;28;19966;-76
2022/07/17 01:29:39;;;;;;;;;;;;;;;9.92;100.00;102031.03;5065649;28;19912;-77
2022/07/17 01:32:05;;;;;;;;;;;;;;;9.93;100.00;102034.56;5064834;28;19917;-76
2022/07/17 01:34:30;;;;;;;;;;;;;;;9.84;100.00;102030.81;5064893;28;20457;-77
2022/07/17 01:36:55;;;;;;;;;;;;;;;9.76;100.00;102035.09;5064374;28;19920;-75
2022/07/17 01:39:52;;;;;;;;;;;;;;;9.79;100.00;102045.53;5065784;28;20374;-75
2022/07/17 01:42:06;;;;;;;;;;;;;;;9.83;100.00;102038.94;5064318;28;20339;-75
2022/07/17 01:44:31;;;;;;;;;;;;;;;9.88;100.00;102047.41;5064341;28;20008;-77
2022/07/17 01:46:56;;;;;;;;;;;;;;;9.88;100.00;102044.75;5064494;28;20292;-77
2022/07/17 01:49:22;;;;;;;;;;;;;;;9.89;100.00;102038.44;5064370;28;20003;-75
2022/07/17 01:51:48;;;;;;;;;;;;;;;9.98;100.00;102040.34;5064433;28;19920;-77
2022/07/17 01:54:13;;;;;;;;;;;;;;;10.11;100.00;102049.06;5051435;28;20346;-77
2022/07/17 01:56:38;;;;;;;;;;;;;;;10.20;100.00;102057.25;5067809;28;19920;-77
2022/07/17 01:59:16;;;;;;;;;;;;;;;10.15;100.00;102053.13;5067455;28;20346;-77
2022/07/17 02:01:42;;;;;;;;;;;;;;;10.08;100.00;102045.78;5065565;28;19916;-77
2022/07/17 02:04:07;;;;;;;;;;;;;;;10.08;100.00;102043.09;5050876;28;19919;-77
2022/07/17 02:06:32;;;;;;;;;;;;;;;10.04;100.00;102047.84;5067910;28;19924;-76
2022/07/17 02:08:57;;;;;;;;;;;;;;;10.01;100.00;102055.25;5068815;28;19920;-77
2022/07/17 02:11:23;;;;;;;;;;;;;;;10.19;100.00;102063.56;5043596;28;19935;-76
2022/07/17 02:13:48;;;;;;;;;;;;;;;10.21;100.00;102061.59;5067460;28;19920;-77
2022/07/17 02:16:13;;;;;;;;;;;;;;;10.20;100.00;102073.25;5066975;28;19920;-77
2022/07/17 02:18:39;;;;;;;;;;;;;;;10.22;100.00;102065.97;5050286;28;19917;-77
2022/07/17 02:21:04;;;;;;;;;;;;;;;10.18;100.00;102062.69;5067058;28;20412;-77
2022/07/17 02:23:29;;;;;;;;;;;;;;;10.18;100.00;102067.19;5068807;28;19917;-76
2022/07/17 02:25:54;;;;;;;;;;;;;;;10.15;100.00;102062.97;5068243;28;19984;-77
2022/07/17 02:28:20;;;;;;;;;;;;;;;10.17;100.00;102066.38;5068104;28;19916;-77
2022/07/17 02:30:47;;;;;;;;;;;;;;;10.12;100.00;102069.41;5068115;28;19924;-75
2022/07/17 02:33:12;;;;;;;;;;;;;;;10.21;100.00;102066.94;5068212;28;19986;-77
2022/07/17 02:35:37;;;;;;;;;;;;;;;10.17;100.00;102068.19;5068216;28;20366;-76
2022/07/17 02:38:03;;;;;;;;;;;;;;;10.17;100.00;102082.38;5066688;28;20382;-77
2022/07/17 02:40:28;;;;;;;;;;;;;;;10.13;100.00;102076.44;5067696;28;20404;-77
2022/07/17 02:42:53;;;;;;;;;;;;;;;10.15;100.00;102073.66;5066385;28;19923;-77
2022/07/17 02:45:24;;;;;;;;;;;;;;;10.16;100.00;102075.34;5066368;28;19916;-77
2022/07/17 02:47:50;;;;;;;;;;;;;;;10.18;100.00;102077.88;5066291;28;19916;-76
2022/07/17 02:50:15;;;;;;;;;;;;;;;10.28;100.00;102077.03;5068208;28;20337;-75
2022/07/17 02:52:40;;;;;;;;;;;;;;;10.26;100.00;102075.44;5066223;28;20014;-75
2022/07/17 02:55:06;;;;;;;;;;;;;;;10.29;100.00;102086.72;5067655;28;19913;-76
2022/07/17 02:57:32;;;;;;;;;;;;;;;10.29;100.00;102085.88;5067202;28;19991;-76
2022/07/17 02:59:57;;;;;;;;;;;;;;;10.24;100.00;102080.88;5065722;28;19920;-77
2022/07/17 03:02:23;;;;;;;;;;;;;;;10.17;100.00;102082.38;5065902;28;20074;-77
2022/07/17 03:04:48;;;;;;;;;;;;;;;10.24;100.00;102094.22;5065522;28;19913;-77
2022/07/17 03:07:13;;;;;;;;;;;;;;;10.21;100.00;102090.97;5049639;28;19928;-77
2022/07/17 03:09:39;;;;;;;;;;;;;;;10.21;100.00;102093.63;5067281;28;19912;-76
2022/07/17 03:12:04;;;;;;;;;;;;;;;10.20;100.00;102095.44;5067288;28;19916;-77
2022/07/17 03:14:29;;;;;;;;;;;;;;;10.21;100.00;102090.97;5049313;28;19916;-77
2022/07/17 03:16:55;;;;;;;;;;;;;;;10.19;100.00;102088.44;5066100;28;20331;-75
2022/07/17 03:19:20;;;;;;;;;;;;;;;10.20;100.00;102091.94;5066594;28;20010;-76
2022/07/17 03:21:45;;;;;;;;;;;;;;;10.21;100.00;102085.63;5066228;28;19921;-75
2022/07/17 03:24:10;;;;;;;;;;;;;;;10.21;100.00;102082.94;5066134;28;19920;-74
2022/07/17 03:26:36;;;;;;;;;;;;;;;10.27;100.00;102069.09;5065909;28;19916;-77
2022/07/17 03:29:01;;;;;;;;;;;;;;;10.32;100.00;102064.25;5066923;28;19916;-76
2022/07/17 03:31:26;;;;;;;;;;;;;;;10.33;100.00;102060.63;5065727;28;20389;-77
2022/07/17 03:33:52;;;;;;;;;;;;;;;10.37;100.00;102067.38;5049286;28;19924;-76
2022/07/17 03:36:17;;;;;;;;;;;;;;;10.36;100.00;102073.72;5048908;28;19916;-76
2022/07/17 03:38:42;;;;;;;;;;;;;;;10.35;100.00;102080.03;5066829;28;19964;-77
2022/07/17 03:41:07;;;;;;;;;;;;;;;10.43;100.00;102082.91;5065691;28;19917;-77
2022/07/17 03:43:33;;;;;;;;;;;;;;;10.45;100.00;102075.59;5065523;28;19916;-76
2022/07/17 03:45:58;;;;;;;;;;;;;;;10.43;100.00;102077.56;5066604;28;20331;-77
2022/07/17 03:48:23;;;;;;;;;;;;;;;10.47;100.00;102073.66;5066840;28;19970;-77
2022/07/17 03:50:49;;;;;;;;;;;;;;;10.56;100.00;102086.22;5066444;28;20321;-77
2022/07/17 03:53:14;;;;;;;;;;;;;;;10.65;100.00;102079.28;5048805;28;19920;-76
2022/07/17 03:55:39;;;;;;;;;;;;;;;10.77;100.00;102083.56;5048303;28;20487;-76
2022/07/17 03:58:04;;;;;;;;;;;;;;;10.80;100.00;102076.28;5066547;28;20004;-75
2022/07/17 04:00:30;;;;;;;;;;;;;;;10.91;100.00;102079.72;5047766;28;20266;-76
2022/07/17 04:02:55;;;;;;;;;;;;;;;11.05;100.00;102077.66;5066785;28;20285;-76
2022/07/17 04:05:20;;;;;;;;;;;;;;;11.11;100.00;102074.44;5064918;28;20006;-77
2022/07/17 04:07:46;;;;;;;;;;;;;;;11.16;100.00;102065.03;5064731;28;19913;-76
2022/07/17 04:10:12;;;;;;;;;;;;;;;11.24;100.00;102061.72;5064457;28;20396;-76
2022/07/17 04:12:38;;;;;;;;;;;;;;;11.30;100.00;102054.97;5048201;28;20442;-76
2022/07/17 04:15:04;;;;;;;;;;;;;;;11.39;100.00;102051.50;5064014;28;19958;-76
2022/07/17 04:17:30;;;;;;;;;;;;;;;11.48;100.00;102052.50;5065508;28;20001;-76
2022/07/17 04:19:55;;;;;;;;;;;;;;;11.43;100.00;102044.91;5066410;28;19978;-77
2022/07/17 04:22:20;;;;;;;;;;;;;;;11.52;100.00;102048.56;5065124;28;20425;-76
2022/07/17 04:24:46;;;;;;;;;;;;;;;11.60;100.00;102040.72;5064532;28;19917;-76
2022/07/17 04:27:12;;;;;;;;;;;;;;;11.62;100.00;102039.59;5064520;28;19974;-76
2022/07/17 04:29:37;;;;;;;;;;;;;;;11.68;100.00;102038.16;5065516;28;19923;-76
2022/07/17 04:32:03;;;;;;;;;;;;;;;11.64;100.00;102044.81;5047685;28;19913;-75
2022/07/17 04:34:28;;;;;;;;;;;;;;;11.66;100.00;102050.00;5066578;28;19962;-75
2022/07/17 04:36:54;;;;;;;;;;;;;;;11.60;100.00;102056.75;5065923;28;19920;-76
2022/07/17 04:39:19;;;;;;;;;;;;;;;11.57;100.00;102059.72;5065931;28;19933;-75
2022/07/17 04:41:44;;;;;;;;;;;;;;;11.58;100.00;102075.59;5064871;28;20405;-77
2022/07/17 04:44:09;;;;;;;;;;;;;;;11.69;100.00;102073.81;5065624;28;19916;-75
2022/07/17 04:46:35;;;;;;;;;;;;;;;11.78;100.00;102076.50;5047687;28;20277;-76
2022/07/17 04:49:00;;;;;;;;;;;;;;;11.83;100.00;102084.97;5065007;28;19920;-76
2022/07/17 04:51:25;;;;;;;;;;;;;;;11.86;100.00;102048.22;5065407;28;19960;-76
2022/07/17 04:53:51;;;;;;;;;;;;;;;11.89;100.00;102043.44;5065398;28;20377;-76
2022/07/17 04:56:16;;;;;;;;;;;;;;;11.98;100.00;102033.75;5065561;28;20342;-76
2022/07/17 04:58:41;;;;;;;;;;;;;;;12.14;100.00;102047.41;5064001;28;19932;-76
2022/07/17 05:01:06;;;;;;;;;;;;;;;12.16;100.00;102050.78;5063530;28;19920;-76
2022/07/17 05:03:32;;;;;;;;;;;;;;;12.23;100.00;102051.06;5046881;28;19922;-76
2022/07/17 05:05:57;;;;;;;;;;;;;;;12.32;100.00;102062.78;5065582;28;19919;-76
2022/07/17 05:08:22;;;;;;;;;;;;;;;12.44;100.00;102072.34;5063733;28;19916;-76
2022/07/17 05:10:48;;;;;;;;;;;;;;;12.51;100.00;102065.44;5065209;28;19916;-76
2022/07/17 05:13:13;;;;;;;;;;;;;;;12.46;100.00;102059.66;5064986;28;19916;-76
2022/07/17 05:15:38;;;;;;;;;;;;;;;12.56;100.00;102065.00;5064078;28;19912;-76
2022/07/17 05:18:04;;;;;;;;;;;;;;;12.57;100.00;102072.91;5063692;28;19920;-76
2022/07/17 05:20:29;;;;;;;;;;;;;;;12.61;100.00;102073.44;5063827;28;20377;-77
2022/07/17 05:22:54;;;;;;;;;;;;;;;12.73;100.00;102082.16;5063523;28;19989;-76
2022/07/17 05:25:21;;;;;;;;;;;;;;;12.57;100.00;102050.59;5063975;28;19978;-76
2022/07/17 05:27:46;;;;;;;;;;;;;;;12.71;100.00;102052.00;5065750;28;19990;-76
2022/07/17 05:30:11;;;;;;;;;;;;;;;12.78;100.00;102069.19;5044436;28;20286;-76
2022/07/17 05:32:36;;;;;;;;;;;;;;;12.63;100.00;102056.25;5069155;28;19924;-77
2022/07/17 05:35:02;;;;;;;;;;;;;;;12.67;100.00;102052.28;5067439;28;20323;-76
2022/07/17 05:37:27;;;;;;;;;;;;;;;12.64;100.00;102047.22;5067536;28;19923;-77
2022/07/17 05:39:53;;;;;;;;;;;;;;;12.66;100.00;102045.22;5050632;28;20305;-77
2022/07/17 05:42:18;;;;;;;;;;;;;;;12.73;100.00;102066.94;5067970;28;19916;-76
2022/07/17 05:44:43;;;;;;;;;;;;;;;12.83;100.00;102072.25;5051102;28;19916;-76
2022/07/17 05:47:09;;;;;;;;;;;;;;;12.90;100.00;102068.03;5066986;28;19921;-77
2022/07/17 05:49:34;;;;;;;;;;;;;;;12.98;100.00;102065.47;5049893;28;20452;-76
2022/07/17 05:51:59;;;;;;;;;;;;;;;13.10;100.00;102056.25;5068489;28;20567;-77
2022/07/17 05:54:25;;;;;;;;;;;;;;;13.17;100.00;102047.63;5067189;28;20449;-77
2022/07/17 05:56:50;;;;;;;;;;;;;;;13.20;100.00;102031.22;5068983;28;19921;-76
2022/07/17 05:59:15;;;;;;;;;;;;;;;13.36;100.00;102049.38;5069126;28;19920;-76
2022/07/17 06:01:41;;;;;;;;;;;;;;;13.54;100.00;102074.44;5069267;28;19989;-77
2022/07/17 06:04:07;;;;;;;;;;;;;;;13.54;100.00;102070.91;5067636;28;19913;-76
2022/07/17 06:06:32;;;;;;;;;;;;;;;13.68;100.00;102078.44;5067078;28;20447;-76
2022/07/17 06:08:57;;;;;;;;;;;;;;;13.79;100.00;102053.22;5067189;28;20440;-75
2022/07/17 06:11:22;;;;;;;;;;;;;;;14.04;100.00;102025.63;5067088;28;19966;-75
2022/07/17 06:13:48;;;;;;;;;;;;;;;14.04;100.00;102003.28;5066931;28;19913;-76
2022/07/17 06:16:13;;;;;;;;;;;;;;;14.00;100.00;101993.84;5050883;28;20391;-76
2022/07/17 06:18:38;;;;;;;;;;;;;;;13.90;100.00;101973.31;5067976;28;19916;-75
2022/07/17 06:21:04;;;;;;;;;;;;;;;13.77;100.00;101991.66;5068153;28;19920;-75
2022/07/17 06:23:30;;;;;;;;;;;;;;;13.97;100.00;101996.88;5069227;28;19920;-75
2022/07/17 06:25:55;;;;;;;;;;;;;;;14.22;100.00;102022.94;5068140;28;19920;-76
2022/07/17 06:28:21;;;;;;;;;;;;;;;14.64;100.00;102046.44;5050141;28;20289;-75
2022/07/17 06:30:46;;;;;;;;;;;;;;;14.46;100.00;101983.81;5049925;28;19916;-75
2022/07/17 06:33:11;;;;;;;;;;;;;;;15.71;100.00;102009.25;5067999;28;20009;-75
2022/07/17 06:35:36;;;;;;;;;;;;;;;15.75;100.00;101913.69;5066839;28;19916;-76
2022/07/17 06:38:02;;;;;;;;;;;;;;;16.27;100.00;101918.69;5067342;28;19913;-76
2022/07/17 06:40:27;;;;;;;;;;;;;;;16.68;100.00;101849.31;5067503;28;19916;-75
2022/07/17 06:42:53;;;;;;;;;;;;;;;17.12;100.00;101777.78;5067198;28;19913;-76
2022/07/17 06:45:18;;;;;;;;;;;;;;;17.40;100.00;101671.94;5067418;28;19938;-75
2022/07/17 06:47:43;;;;;;;;;;;;;;;17.99;100.00;101758.41;5066627;28;19916;-75
2022/07/17 06:50:10;;;;;;;;;;;;;;;17.96;100.00;101564.25;5067908;28;19969;-75
2022/07/17 06:52:35;;;;;;;;;;;;;;;17.35;100.00;101551.03;5068144;28;20031;-76
2022/07/17 06:55:00;;;;;;;;;;;;;;;16.66;100.00;101568.25;5066913;28;20054;-76
2022/07/17 06:57:26;;;;;;;;;;;;;;;17.34;100.00;101799.53;5050267;28;19913;-76
2022/07/17 06:59:51;;;;;;;;;;;;;;;16.97;100.00;101737.25;5050269;28;20390;-75
2022/07/17 07:02:16;;;;;;;;;;;;;;;16.63;100.00;101738.47;5050064;28;19918;-76
2022/07/17 07:04:43;;;;;;;;;;;;;;;17.09;100.00;101895.00;5068184;28;19920;-76
2022/07/17 07:07:09;;;;;;;;;;;;;;;16.82;100.00;101744.44;5068029;28;19920;-76
2022/07/17 07:09:34;;;;;;;;;;;;;;;16.60;100.00;101791.91;5067233;28;20321;-75
2022/07/17 07:11:59;;;;;;;;;;;;;;;16.67;100.00;101884.56;5065740;28;20031;-76
2022/07/17 07:14:24;;;;;;;;;;;;;;;16.84;100.00;101902.38;5066709;28;19920;-75
2022/07/17 07:16:50;;;;;;;;;;;;;;;16.35;100.00;101850.47;5050154;28;19923;-76
2022/07/17 07:19:15;;;;;;;;;;;;;;;16.20;100.00;101976.97;5065785;28;20296;-76
2022/07/17 07:21:40;;;;;;;;;;;;;;;15.43;100.00;101920.72;5066185;28;19934;-76
2022/07/17 07:24:06;;;;;;;;;;;;;;;15.45;100.00;101996.72;5066390;28;20423;-76
2022/07/17 07:26:31;;;;;;;;;;;;;;;15.37;100.00;102020.94;5067482;28;19913;-75
2022/07/17 07:28:56;;;;;;;;;;;;;;;15.52;100.00;102091.13;5065735;28;19982;-76
2022/07/17 07:31:21;;;;;;;;;;;;;;;15.33;100.00;102068.84;5066092;28;19920;-76
2022/07/17 07:33:47;;;;;;;;;;;;;;;16.23;100.00;102146.41;5066179;28;19920;-78
2022/07/17 07:36:12;;;;;;;;;;;;;;;16.94;100.00;102042.44;5067227;28;20000;-76
2022/07/17 07:38:38;;;;;;;;;;;;;;;17.07;100.00;101952.84;5049355;28;19924;-76
2022/07/17 07:41:03;;;;;;;;;;;;;;;17.95;100.00;101915.66;5052420;28;19912;-76
2022/07/17 07:43:29;;;;;;;;;;;;;;;18.24;100.00;101821.13;5049348;28;19916;-76
2022/07/17 07:45:54;;;;;;;;;;;;;;;18.09;100.00;101769.75;5072656;28;20709;-76
2022/07/17 07:48:20;;;;;;;;;;;;;;;17.61;100.00;101788.16;5048758;28;19927;-76
2022/07/17 07:50:45;;;;;;;;;;;;;;;18.75;100.00;101845.47;5048981;28;19916;-76
2022/07/17 07:53:10;;;;;;;;;;;;;;;19.77;100.00;101860.69;5048893;28;19974;-77
2022/07/17 07:55:35;;;;;;;;;;;;;;;20.26;100.00;101690.00;5067032;28;19913;-77
2022/07/17 07:58:10;;;;;;;;;;;;;;;20.48;98.84;101511.66;5066571;28;19923;-76
2022/07/17 08:00:36;;;;;;;;;;;;;;;19.41;94.96;101319.22;5068863;28;19956;-77
2022/07/17 08:03:01;;;;;;;;;;;;;;;18.65;100.00;101441.13;5072884;28;19962;-76
2022/07/17 08:05:27;;;;;;;;;;;;;;;19.03;100.00;101628.25;5073084;28;19917;-77
2022/07/17 08:07:52;;;;;;;;;;;;;;;19.56;100.00;101627.78;5072407;28;20003;-77
2022/07/17 08:10:18;;;;;;;;;;;;;;;19.80;100.00;101675.22;5073408;28;19916;-75
2022/07/17 08:12:43;;;;;;;;;;;;;;;19.86;93.44;101462.25;5074094;28;19921;-77
2022/07/17 08:15:09;;;;;;;;;;;;;;;19.97;94.64;101523.94;5073578;28;19920;-77
2022/07/17 08:17:34;;;;;;;;;;;;;;;19.93;99.33;101614.84;5073964;28;20601;-76
2022/07/17 08:20:00;;;;;;;;;;;;;;;19.46;100.00;101666.06;5072614;28;19928;-76
2022/07/17 08:22:25;;;;;;;;;;;;;;;19.57;100.00;101670.06;5070527;28;20285;-76
2022/07/17 08:24:50;;;;;;;;;;;;;;;19.38;99.92;101612.88;5063977;28;19920;-77
2022/07/17 08:27:16;;;;;;;;;;;;;;;19.79;100.00;101701.47;5046675;28;19927;-76
2022/07/17 08:29:42;;;;;;;;;;;;;;;20.18;87.95;101512.06;5061848;28;19923;-76
2022/07/17 08:32:07;;;;;;;;;;;;;;;20.50;82.25;101453.44;5066202;28;19914;-76
2022/07/17 08:34:32;;;;;;;;;;;;;;;20.39;79.94;101384.44;5048144;28;19920;-76
2022/07/17 08:36:57;;;;;;;;;;;;;;;21.17;83.19;101619.75;5066005;28;19917;-76
2022/07/17 08:39:23;;;;;;;;;;;;;;;20.44;75.99;101281.56;5063615;28;19936;-76
2022/07/17 08:41:48;;;;;;;;;;;;;;;19.92;86.12;101461.41;5047706;28;19916;-77
2022/07/17 08:44:13;;;;;;;;;;;;;;;19.69;91.23;101562.84;5065196;28;19944;-76
2022/07/17 08:46:39;;;;;;;;;;;;;;;20.62;86.85;101654.41;5048809;28;20617;-77
2022/07/17 08:49:05;;;;;;;;;;;;;;;21.18;84.42;101693.91;5066204;28;19920;-77
2022/07/17 08:51:30;;;;;;;;;;;;;;;20.87;74.48;101351.53;5064912;28;20397;-78
2022/07/17 08:53:56;;;;;;;;;;;;;;;20.68;86.81;101637.31;5048587;28;19916;-77
2022/07/17 08:56:21;;;;;;;;;;;;;;;19.88;86.07;101473.69;5064855;28;19917;-76
2022/07/17 08:58:47;;;;;;;;;;;;;;;20.88;84.21;101642.75;5066077;28;19925;-77
2022/07/17 09:01:12;;;;;;;;;;;;;;;20.48;78.62;101439.25;5045253;28;20591;-77
2022/07/17 09:03:41;;;;;;;;;;;;;;;20.45;77.19;101396.31;5048142;28;19924;-77
2022/07/17 09:06:20;;;;;;;;;;;;;;;19.65;82.53;101363.81;5048327;28;19919;-76
2022/07/17 09:08:45;;;;;;;;;;;;;;;20.11;83.05;101513.94;5058724;28;19916;-77
2022/07/17 09:11:10;;;;;;;;;;;;;;;21.30;78.49;101632.47;5066191;28;19924;-77
2022/07/17 09:13:35;;;;;;;;;;;;;;;21.10;73.73;101458.75;5048171;28;20464;-78
2022/07/17 09:16:07;;;;;;;;;;;;;;;21.50;68.46;101404.25;5048383;28;19913;-77
2022/07/17 09:18:53;;;;;;;;;;;;;;;22.33;66.58;101510.09;5058687;28;20011;-77
2022/07/17 09:21:20;;;;;;;;;;;;;;;21.86;64.57;101311.16;5047617;28;19924;-76
2022/07/17 09:23:45;;;;;;;;;;;;;;;21.72;63.44;101238.97;5065913;28;20027;-77
2022/07/17 09:26:11;;;;;;;;;;;;;;;21.35;66.67;101316.78;5064699;28;20007;-76
2022/07/17 09:28:46;;;;;;;;;;;;;;;21.77;72.89;101630.47;5065692;28;19916;-76
2022/07/17 09:31:11;;;;;;;;;;;;;;;22.35;66.79;101547.97;5065371;28;20027;-76
2022/07/17 09:33:36;;;;;;;;;;;;;;;23.21;60.68;101470.06;5064562;28;20443;-77
2022/07/17 09:36:10;;;;;;;;;;;;;;;22.74;59.20;101277.31;5064481;28;19917;-76
2022/07/17 09:38:36;;;;;;;;;;;;;;;22.91;58.91;101312.06;5064741;28;20030;-77
2022/07/17 09:41:09;;;;;;;;;;;;;;;21.86;65.69;101425.31;5065707;28;19913;-77
2022/07/17 09:43:54;;;;;;;;;;;;;;;22.60;59.89;101296.78;5056691;28;19921;-76
2022/07/17 09:46:21;;;;;;;;;;;;;;;22.30;57.87;101169.72;5064504;28;19916;-76
2022/07/17 09:48:47;;;;;;;;;;;;;;;23.05;59.13;101402.59;5065544;28;19920;-77
2022/07/17 09:51:15;;;;;;;;;;;;;;;22.73;57.80;101253.03;5068794;28;19983;-78
2022/07/17 09:53:44;;;;;;;;;;;;;;;22.93;57.60;101277.28;5059941;28;19916;-76
2022/07/17 09:56:10;;;;;;;;;;;;;;;23.40;58.95;101451.78;5065199;28;20297;-76
2022/07/17 09:58:37;;;;;;;;;;;;;;;23.29;56.25;101259.16;5063714;28;20350;-74
2022/07/17 10:01:03;;;;;;;;;;;;;;;23.44;55.99;101338.56;5063705;28;20289;-75
2022/07/17 10:03:28;;;;;;;;;;;;;;;24.07;55.38;101424.38;5063847;28;19919;-75
2022/07/17 10:05:54;;;;;;;;;;;;;;;23.98;54.65;101357.59;5063778;28;19928;-75
2022/07/17 10:08:19;;;;;;;;;;;;;;;24.29;54.06;101371.94;5064784;28;19913;-75
2022/07/17 10:10:45;;;;;;;;;;;;;;;23.46;54.32;101183.84;5063472;28;19927;-74
2022/07/17 10:13:12;;;;;;;;;;;;;;;23.58;55.00;101252.78;5064965;28;19917;-75
2022/07/17 10:15:38;;;;;;;;;;;;;;;24.46;53.98;101404.78;5067474;28;20378;-75
2022/07/17 10:18:07;;;;;;;;;;;;;;;23.82;52.61;101143.75;5067243;28;19920;-75
2022/07/17 10:20:32;;;;;;;;;;;;;;;23.50;51.28;100969.72;5060112;28;19920;-75
2022/07/17 10:22:57;;;;;;;;;;;;;;;23.48;56.16;101360.69;5067506;28;19962;-75
2022/07/17 10:25:23;;;;;;;;;;;;;;;23.78;52.33;101153.47;5068382;28;19924;-74
2022/07/17 10:27:53;;;;;;;;;;;;;;;24.15;53.04;101317.63;5067036;28;19912;-75
2022/07/17 10:30:22;;;;;;;;;;;;;;;24.61;53.27;101381.41;5068140;28;19923;-75
2022/07/17 10:32:52;;;;;;;;;;;;;;;24.29;51.25;101154.50;5058879;28;19924;-75
2022/07/17 10:35:18;;;;;;;;;;;;;;;25.12;51.25;101367.09;5067941;28;19916;-75
2022/07/17 10:37:43;;;;;;;;;;;;;;;25.68;50.33;101406.41;5068392;28;19916;-75
2022/07/17 10:40:22;;;;;;;;;;;;;;;25.41;51.10;101379.72;5066380;28;19956;-75
2022/07/17 10:42:58;;;;;;;;;;;;;;;25.62;50.92;101401.94;5061408;28;19928;-74
2022/07/17 10:45:43;;;;;;;;;;;;;;;24.41;49.66;100988.00;5066645;28;20824;-76
2022/07/17 10:48:09;;;;;;;;;;;;;;;23.94;50.20;100983.66;5055065;28;19924;-78
2022/07/17 10:50:36;;;;;;;;;;;;;;;24.41;51.00;101200.84;5074071;28;19913;-78
2022/07/17 10:53:11;;;;;;;;;;;;;;;25.09;50.18;101294.66;5067490;28;19917;-78
2022/07/17 10:55:38;;;;;;;;;;;;;;;23.70;50.94;100993.03;5072044;28;19923;-79
2022/07/17 10:58:03;;;;;;;;;;;;;;;23.56;52.94;101129.56;5071732;28;19924;-79
2022/07/17 11:00:29;;;;;;;;;;;;;;;23.64;52.14;101092.91;5071596;28;19920;-77
2022/07/17 11:02:54;;;;;;;;;;;;;;;23.99;54.56;101365.53;5070842;28;20659;-77
2022/07/17 11:05:20;;;;;;;;;;;;;;;24.43;50.76;101174.94;5073258;28;19928;-78
2022/07/17 11:07:53;;;;;;;;;;;;;;;24.56;50.50;101195.69;5071942;28;19917;-79
2022/07/17 11:10:19;;;;;;;;;;;;;;;24.27;50.73;101120.34;5072327;28;20358;-78
2022/07/17 11:12:44;;;;;;;;;;;;;;;24.50;49.89;101127.63;5072365;28;19921;-78
2022/07/17 11:15:10;;;;;;;;;;;;;;;24.79;52.14;101372.22;5072069;28;19927;-77
2022/07/17 11:17:36;;;;;;;;;;;;;;;24.90;51.20;101304.16;5055732;28;19989;-79
2022/07/17 11:20:02;;;;;;;;;;;;;;;24.69;50.56;101221.84;5053617;28;19969;-78
2022/07/17 11:22:27;;;;;;;;;;;;;;;24.47;50.04;101096.19;5055960;28;19913;-79
2022/07/17 11:24:53;;;;;;;;;;;;;;;24.78;50.47;101230.50;5072714;28;19924;-78
2022/07/17 11:27:23;;;;;;;;;;;;;;;24.45;50.75;101163.81;5073265;28;19935;-78
2022/07/17 11:29:49;;;;;;;;;;;;;;;24.34;49.84;101011.88;5051872;28;19952;-78
2022/07/17 11:32:14;;;;;;;;;;;;;;;25.31;50.18;101324.88;5050498;28;19987;-78
2022/07/17 11:34:40;;;;;;;;;;;;;;;25.59;48.10;101211.03;5052988;28;20082;-78
2022/07/17 11:37:07;;;;;;;;;;;;;;;26.33;48.50;101435.09;5052815;28;20060;-80
2022/07/17 11:39:41;;;;;;;;;;;;;;;25.75;46.79;101105.44;5051828;28;19983;-79
2022/07/17 11:42:08;;;;;;;;;;;;;;;25.65;46.32;101014.00;5051995;28;20013;-78
2022/07/17 11:44:34;;;;;;;;;;;;;;;25.13;49.28;101163.88;5051782;28;20365;-78
2022/07/17 11:46:59;;;;;;;;;;;;;;;25.36;49.03;101223.84;5051895;28;20047;-78
2022/07/17 11:49:31;;;;;;;;;;;;;;;25.65;47.25;101106.97;5067216;28;20007;-78
2022/07/17 11:52:08;;;;;;;;;;;;;;;25.36;48.74;101176.56;5051450;28;19923;-78
2022/07/17 11:54:43;;;;;;;;;;;;;;;25.20;46.22;100875.78;5058167;28;19916;-78
2022/07/17 11:57:08;;;;;;;;;;;;;;;24.84;48.01;101003.69;5051146;28;19951;-78
2022/07/17 11:59:33;;;;;;;;;;;;;;;25.92;48.49;101289.50;5066999;28;20017;-78
2022/07/17 12:02:09;;;;;;;;;;;;;;;25.50;49.82;101295.41;5067310;28;20248;-78
2022/07/17 12:04:34;;;;;;;;;;;;;;;24.95;48.39;101034.69;5065527;28;20221;-79
2022/07/17 12:07:01;;;;;;;;;;;;;;;24.97;48.53;101050.84;5049278;28;19918;-79
2022/07/17 12:09:27;;;;;;;;;;;;;;;24.91;49.87;101171.97;5065527;28;20031;-78
2022/07/17 12:11:52;;;;;;;;;;;;;;;26.07;49.65;101447.56;5049109;28;20337;-79
2022/07/17 12:14:18;;;;;;;;;;;;;;;26.36;47.01;101272.28;5048563;28;20046;-78
2022/07/17 12:16:44;;;;;;;;;;;;;;;25.73;47.34;101104.88;5065857;28;19974;-78
2022/07/17 12:19:16;;;;;;;;;;;;;;;25.04;48.47;101018.69;5065148;28;19920;-78
2022/07/17 12:21:46;;;;;;;;;;;;;;;24.72;48.56;100972.09;5058975;28;19917;-78
2022/07/17 12:24:17;;;;;;;;;;;;;;;25.78;47.49;101193.28;5065630;28;19924;-78
2022/07/17 12:26:43;;;;;;;;;;;;;;;25.59;47.34;101118.09;5048131;28;19916;-78